Wayne, Ohio
Current Conditions -  °F | °C
As of 7:53 AM on Thursday 23 Oct 2014 (Local Time) from KTDZ Reporting Station
Haze Haze  
Wind Chill: 32°   Ceiling: Unl
Heat Index: 36°   Visibility: 5mi
Dew Point: 34°   Wind: 5mph
Humidity: 93%   Direction: 310°NW
Pressure: 30.25"   Gusts: NA
Location:  41.3°N, 83.47°W
Report Text: KTDZ 231153Z AUTO 31004KT 5SM BR CLR 02/01 A3025 RMK AO2 SLP247 T00220011 10056 20011 58004 TSNO
Loading
Personal Weather Stations






























Interactive Weather Map
Tropical Storm Tracking
New forecast layout! Learn more

10-Day Weather Forecast

Advertisements
Track Severe Weather on mobile